Time,TemperatureF,DewpointF,PressureIn,WindDirection,WindDirectionDegrees,WindSpeedMPH,WindSpeedGustMPH,Humidity,HourlyPrecipIn,Conditions,Clouds,dailyrainin,SoftwareType,DateUTC
2013-04-05 00:00:00,52.5,50.2,29.70,South,185,1.0,1.0,92,0.00,,,0.36,Wunderground v.1.15,2013-04-05 07:00:00,
2013-04-05 00:10:00,52.6,50.3,29.70,South,180,1.0,1.0,92,0.00,,,0.00,Wunderground v.1.15,2013-04-05 07:10:00,
2013-04-05 00:15:00,52.6,50.3,29.70,ESE,122,1.0,2.0,92,0.00,,,0.00,Wunderground v.1.15,2013-04-05 07:15:00,
2013-04-05 00:25:00,52.7,50.4,29.70,SSE,164,1.0,1.0,92,0.00,,,0.00,Wunderground v.1.15,2013-04-05 07:25:00,
2013-04-05 00:35:00,52.8,50.5,29.70,SSE,164,2.0,7.0,92,0.00,,,0.00,Wunderground v.1.15,2013-04-05 07:35:00,
2013-04-05 00:45:00,52.9,50.3,29.70,SE,145,2.0,5.0,91,0.00,,,0.00,Wunderground v.1.15,2013-04-05 07:45:00,
2013-04-05 00:55:00,52.9,50.0,29.70,South,185,2.0,7.0,90,0.00,,,0.00,Wunderground v.1.15,2013-04-05 07:55:00,
2013-04-05 01:05:00,52.9,50.0,29.70,South,185,3.0,3.0,90,0.00,,,0.00,Wunderground v.1.15,2013-04-05 08:05:00,
2013-04-05 01:10:00,52.8,50.2,29.70,South,185,2.0,2.0,91,0.00,,,0.00,Wunderground v.1.15,2013-04-05 08:10:00,
2013-04-05 01:15:00,52.8,50.2,29.70,SSE,163,1.0,2.0,91,0.00,,,0.01,Wunderground v.1.15,2013-04-05 08:15:00,
2013-04-05 01:25:00,52.9,50.0,29.71,South,185,3.0,4.0,90,0.00,,,0.01,Wunderground v.1.15,2013-04-05 08:25:00,
2013-04-05 01:35:00,52.5,50.2,29.71,SE,128,3.0,5.0,92,0.18,,,0.03,Wunderground v.1.15,2013-04-05 08:35:00,
2013-04-05 01:45:00,51.7,49.5,29.71,South,190,3.0,5.0,92,0.15,,,0.05,Wunderground v.1.15,2013-04-05 08:45:00,
2013-04-05 01:55:00,51.3,48.8,29.70,NNW,328,3.0,8.0,91,0.24,,,0.08,Wunderground v.1.15,2013-04-05 08:55:00,
2013-04-05 02:00:00,51.1,48.6,29.70,ENE,73,4.0,9.0,91,0.52,,,0.13,Wunderground v.1.15,2013-04-05 09:00:00,
2013-04-05 02:10:00,50.8,48.6,29.70,SW,226,4.0,4.0,92,0.16,,,0.19,Wunderground v.1.15,2013-04-05 09:10:00,
2013-04-05 02:15:00,50.8,48.8,29.71,ESE,120,3.0,4.0,93,0.16,,,0.20,Wunderground v.1.15,2013-04-05 09:15:00,
2013-04-05 02:25:00,50.5,48.8,29.71,SSW,195,2.0,2.0,94,0.48,,,0.30,Wunderground v.1.15,2013-04-05 09:25:00,
2013-04-05 02:35:00,50.5,49.1,29.71,SE,144,2.0,10.0,95,0.10,,,0.33,Wunderground v.1.15,2013-04-05 09:35:00,
2013-04-05 02:45:00,50.5,49.1,29.71,South,180,1.0,10.0,95,0.07,,,0.34,Wunderground v.1.15,2013-04-05 09:45:00,
2013-04-05 02:55:00,50.5,49.1,29.72,South,180,2.0,10.0,95,0.38,,,0.38,Wunderground v.1.15,2013-04-05 09:55:00,
2013-04-05 03:05:00,50.4,49.0,29.72,South,180,2.0,3.0,95,0.09,,,0.40,Wunderground v.1.15,2013-04-05 10:05:00,
2013-04-05 03:15:00,50.3,48.9,29.71,SSE,152,3.0,4.0,95,0.04,,,0.40,Wunderground v.1.15,2013-04-05 10:15:00,
2013-04-05 03:25:00,50.3,48.6,29.71,South,170,4.0,5.0,94,0.00,,,0.41,Wunderground v.1.15,2013-04-05 10:25:00,
2013-04-05 03:35:00,50.4,48.7,29.71,West,268,4.0,10.0,94,0.00,,,0.41,Wunderground v.1.15,2013-04-05 10:35:00,
2013-04-05 03:45:00,50.5,48.6,29.71,SE,137,4.0,4.0,93,0.00,,,0.41,Wunderground v.1.15,2013-04-05 10:45:00,
2013-04-05 03:50:00,50.5,48.6,29.70,SSE,148,4.0,4.0,93,0.00,,,0.41,Wunderground v.1.15,2013-04-05 10:50:00,
2013-04-05 03:55:00,50.5,48.6,29.71,South,189,3.0,10.0,93,0.00,,,0.42,Wunderground v.1.15,2013-04-05 10:55:00,
2013-04-05 04:05:00,50.4,48.7,29.71,SE,133,3.0,5.0,94,0.00,,,0.42,Wunderground v.1.15,2013-04-05 11:05:00,
2013-04-05 04:15:00,50.4,48.7,29.71,ESE,117,3.0,3.0,94,0.10,,,0.44,Wunderground v.1.15,2013-04-05 11:15:00,
2013-04-05 04:25:00,50.4,49.0,29.72,SE,138,2.0,3.0,95,0.16,,,0.46,Wunderground v.1.15,2013-04-05 11:25:00,
2013-04-05 04:35:00,50.5,49.1,29.72,SSE,164,4.0,11.0,95,0.06,,,0.47,Wunderground v.1.15,2013-04-05 11:35:00,
2013-04-05 04:45:00,50.4,49.0,29.73,South,175,2.0,11.0,95,0.33,,,0.57,Wunderground v.1.15,2013-04-05 11:45:00,
2013-04-05 04:55:00,50.3,48.9,29.73,SSE,164,1.0,11.0,95,0.14,,,0.60,Wunderground v.1.15,2013-04-05 11:55:00,
2013-04-05 05:05:00,49.8,48.1,29.73,SSW,204,1.0,2.0,94,0.08,,,0.62,Wunderground v.1.15,2013-04-05 12:05:00,
2013-04-05 05:15:00,49.4,47.7,29.73,South,175,2.0,2.0,94,0.05,,,0.63,Wunderground v.1.15,2013-04-05 12:15:00,
2013-04-05 05:25:00,49.2,47.8,29.73,South,180,1.0,2.0,95,0.05,,,0.63,Wunderground v.1.15,2013-04-05 12:25:00,
2013-04-05 05:30:00,49.2,47.8,29.73,South,185,1.0,3.0,95,0.05,,,0.64,Wunderground v.1.15,2013-04-05 12:30:00,
2013-04-05 05:35:00,49.3,48.2,29.74,SSE,162,1.0,9.0,96,0.05,,,0.64,Wunderground v.1.15,2013-04-05 12:35:00,
2013-04-05 05:45:00,49.6,48.5,29.73,SE,138,2.0,9.0,96,0.00,,,0.64,Wunderground v.1.15,2013-04-05 12:45:00,
2013-04-05 05:55:00,49.8,48.7,29.74,SSW,212,2.0,9.0,96,0.00,,,0.64,Wunderground v.1.15,2013-04-05 12:55:00,
2013-04-05 06:05:00,49.9,48.8,29.74,SE,141,2.0,4.0,96,0.00,,,0.64,Wunderground v.1.15,2013-04-05 13:05:00,
2013-04-05 06:10:00,49.9,48.8,29.74,SSE,167,3.0,4.0,96,0.00,,,0.64,Wunderground v.1.15,2013-04-05 13:10:00,
2013-04-05 06:20:00,50.0,48.9,29.74,SSW,203,2.0,2.0,96,0.00,,,0.64,Wunderground v.1.15,2013-04-05 13:20:00,
2013-04-05 06:25:00,49.9,48.8,29.74,East,92,3.0,5.0,96,0.00,,,0.64,Wunderground v.1.15,2013-04-05 13:25:00,
2013-04-05 06:35:00,49.9,48.8,29.75,SW,234,2.0,6.0,96,0.00,,,0.64,Wunderground v.1.15,2013-04-05 13:35:00,
2013-04-05 06:45:00,49.9,48.5,29.75,North,352,3.0,7.0,95,0.00,,,0.64,Wunderground v.1.15,2013-04-05 13:45:00,
2013-04-05 06:55:00,49.9,48.5,29.76,SSW,204,3.0,6.0,95,0.00,,,0.64,Wunderground v.1.15,2013-04-05 13:55:00,
2013-04-05 07:05:00,50.0,48.6,29.76,SSW,194,4.0,4.0,95,0.00,,,0.64,Wunderground v.1.15,2013-04-05 14:05:00,
2013-04-05 07:15:00,50.1,48.4,29.77,SW,229,3.0,4.0,94,0.00,,,0.64,Wunderground v.1.15,2013-04-05 14:15:00,
2013-04-05 07:25:00,50.1,48.4,29.77,SW,216,3.0,4.0,94,0.00,,,0.64,Wunderground v.1.15,2013-04-05 14:25:00,
2013-04-05 07:35:00,50.2,48.5,29.77,South,180,3.0,10.0,94,0.00,,,0.64,Wunderground v.1.15,2013-04-05 14:35:00,
2013-04-05 07:45:00,50.4,48.5,29.78,South,180,3.0,10.0,93,0.00,,,0.64,Wunderground v.1.15,2013-04-05 14:45:00,
2013-04-05 07:55:00,50.5,48.6,29.79,SSE,164,2.0,10.0,93,0.00,,,0.64,Wunderground v.1.15,2013-04-05 14:55:00,
2013-04-05 08:05:00,50.4,48.5,29.79,South,185,3.0,3.0,93,0.00,,,0.64,Wunderground v.1.15,2013-04-05 15:05:00,
2013-04-05 08:15:00,50.4,48.5,29.79,SE,133,2.0,3.0,93,0.00,,,0.64,Wunderground v.1.15,2013-04-05 15:15:00,
2013-04-05 08:25:00,50.4,48.5,29.80,SSE,163,2.0,3.0,93,0.00,,,0.64,Wunderground v.1.15,2013-04-05 15:25:00,
2013-04-05 08:35:00,50.6,48.7,29.80,South,180,3.0,15.0,93,0.00,,,0.64,Wunderground v.1.15,2013-04-05 15:35:00,
2013-04-05 08:40:00,50.9,48.9,29.80,NNW,341,3.0,3.0,93,0.00,,,0.64,Wunderground v.1.15,2013-04-05 15:40:00,
2013-04-05 08:45:00,51.1,49.1,29.80,SSW,208,3.0,15.0,93,0.00,,,0.64,Wunderground v.1.15,2013-04-05 15:45:00,
2013-04-05 08:55:00,51.4,49.2,29.80,ESE,110,3.0,15.0,92,0.00,,,0.64,Wunderground v.1.15,2013-04-05 15:55:00,
2013-04-05 09:05:00,51.5,49.3,29.80,South,170,4.0,6.0,92,0.00,,,0.64,Wunderground v.1.15,2013-04-05 16:05:00,
2013-04-05 09:15:00,51.6,49.4,29.81,SW,214,4.0,4.0,92,0.00,,,0.64,Wunderground v.1.15,2013-04-05 16:15:00,
2013-04-05 09:25:00,51.6,49.4,29.81,South,189,3.0,3.0,92,0.00,,,0.64,Wunderground v.1.15,2013-04-05 16:25:00,
2013-04-05 09:35:00,51.8,49.5,29.81,ENE,61,3.0,11.0,92,0.00,,,0.64,Wunderground v.1.15,2013-04-05 16:35:00,
2013-04-05 09:45:00,51.9,49.4,29.82,SSE,168,4.0,11.0,91,0.00,,,0.64,Wunderground v.1.15,2013-04-05 16:45:00,
2013-04-05 09:55:00,52.6,50.0,29.82,South,169,3.0,11.0,91,0.00,,,0.64,Wunderground v.1.15,2013-04-05 16:55:00,
2013-04-05 10:00:00,53.2,50.3,29.82,SE,139,3.0,3.0,90,0.00,,,0.64,Wunderground v.1.15,2013-04-05 17:00:00,
2013-04-05 10:10:00,54.0,50.5,29.82,SW,224,3.0,4.0,88,0.00,,,0.64,Wunderground v.1.15,2013-04-05 17:10:00,
2013-04-05 10:15:00,54.2,50.4,29.82,SW,216,3.0,4.0,87,0.00,,,0.64,Wunderground v.1.15,2013-04-05 17:15:00,
2013-04-05 10:25:00,55.1,51.0,29.82,South,185,2.0,4.0,86,0.00,,,0.64,Wunderground v.1.15,2013-04-05 17:25:00,
2013-04-05 10:35:00,55.6,50.2,29.82,NNW,328,3.0,11.0,82,0.00,,,0.64,Wunderground v.1.15,2013-04-05 17:35:00,
2013-04-05 10:45:00,55.7,50.6,29.83,WSW,255,3.0,11.0,83,0.00,,,0.64,Wunderground v.1.15,2013-04-05 17:45:00,
2013-04-05 10:55:00,56.0,50.3,29.83,SSW,198,3.0,4.0,81,0.00,,,0.64,Wunderground v.1.15,2013-04-05 17:55:00,
2013-04-05 11:05:00,56.1,50.3,29.83,SE,133,2.0,3.0,81,0.00,,,0.64,Wunderground v.1.15,2013-04-05 18:05:00,
2013-04-05 11:15:00,56.1,50.0,29.83,SSW,197,3.0,3.0,80,0.00,,,0.64,Wunderground v.1.15,2013-04-05 18:15:00,
2013-04-05 11:25:00,55.8,49.7,29.83,ESE,110,3.0,6.0,80,0.00,,,0.64,Wunderground v.1.15,2013-04-05 18:25:00,
2013-04-05 11:35:00,56.5,50.1,29.84,WNW,287,2.0,9.0,79,0.00,,,0.64,Wunderground v.1.15,2013-04-05 18:35:00,
2013-04-05 11:45:00,56.3,49.9,29.84,South,175,2.0,9.0,79,0.00,,,0.64,Wunderground v.1.15,2013-04-05 18:45:00,
2013-04-05 11:55:00,56.3,49.9,29.84,NW,321,2.0,9.0,79,0.00,,,0.64,Wunderground v.1.15,2013-04-05 18:55:00,
2013-04-05 12:05:00,56.7,49.9,29.84,SSE,166,2.0,4.0,78,0.00,,,0.64,Wunderground v.1.15,2013-04-05 19:05:00,
2013-04-05 12:15:00,56.3,49.5,29.84,South,175,2.0,2.0,78,0.00,,,0.64,Wunderground v.1.15,2013-04-05 19:15:00,
2013-04-05 12:25:00,55.5,49.1,29.84,South,170,3.0,6.0,79,0.00,,,0.64,Wunderground v.1.15,2013-04-05 19:25:00,
2013-04-05 12:35:00,55.3,49.2,29.84,South,180,2.0,9.0,80,0.00,,,0.64,Wunderground v.1.15,2013-04-05 19:35:00,
2013-04-05 12:45:00,55.2,50.1,29.84,South,170,2.0,9.0,83,0.00,,,0.65,Wunderground v.1.15,2013-04-05 19:45:00,
2013-04-05 12:55:00,55.3,49.6,29.84,SSE,157,2.0,3.0,81,0.00,,,0.65,Wunderground v.1.15,2013-04-05 19:55:00,
2013-04-05 13:05:00,56.3,49.9,29.84,South,180,2.0,2.0,79,0.00,,,0.65,Wunderground v.1.15,2013-04-05 20:05:00,
2013-04-05 13:15:00,56.4,49.6,29.84,South,180,1.0,2.0,78,0.00,,,0.65,Wunderground v.1.15,2013-04-05 20:15:00,
2013-04-05 13:25:00,56.7,49.6,29.84,South,185,1.0,1.0,77,0.00,,,0.65,Wunderground v.1.15,2013-04-05 20:25:00,
2013-04-05 13:30:00,56.5,49.4,29.84,SW,226,1.0,6.0,77,0.00,,,0.65,Wunderground v.1.15,2013-04-05 20:30:00,
2013-04-05 13:35:00,56.0,49.2,29.84,South,175,2.0,8.0,78,0.00,,,0.65,Wunderground v.1.15,2013-04-05 20:35:00,
2013-04-05 13:45:00,55.8,49.0,29.84,North,8,1.0,8.0,78,0.00,,,0.65,Wunderground v.1.15,2013-04-05 20:45:00,
2013-04-05 13:55:00,56.2,49.1,29.84,NE,37,1.0,8.0,77,0.00,,,0.65,Wunderground v.1.15,2013-04-05 20:55:00,
2013-04-05 14:05:00,56.5,49.4,29.84,SSW,202,0.0,0.0,77,0.00,,,0.65,Wunderground v.1.15,2013-04-05 21:05:00,
2013-04-05 14:15:00,56.2,49.1,29.84,South,175,1.0,2.0,77,0.00,,,0.65,Wunderground v.1.15,2013-04-05 21:15:00,
2013-04-05 14:25:00,56.1,49.0,29.84,SE,125,1.0,1.0,77,0.00,,,0.65,Wunderground v.1.15,2013-04-05 21:25:00,
2013-04-05 14:35:00,56.1,49.0,29.84,SW,214,1.0,7.0,77,0.00,,,0.65,Wunderground v.1.15,2013-04-05 21:35:00,
2013-04-05 14:45:00,56.1,49.0,29.84,SSW,193,1.0,7.0,77,0.00,,,0.65,Wunderground v.1.15,2013-04-05 21:45:00,
2013-04-05 14:55:00,56.1,49.0,29.84,South,180,1.0,7.0,77,0.00,,,0.65,Wunderground v.1.15,2013-04-05 21:55:00,
2013-04-05 15:05:00,56.3,49.2,29.84,South,180,1.0,1.0,77,0.00,,,0.65,Wunderground v.1.15,2013-04-05 22:05:00,
2013-04-05 15:15:00,56.4,48.9,29.83,West,260,1.0,1.0,76,0.00,,,0.65,Wunderground v.1.15,2013-04-05 22:15:00,
2013-04-05 15:25:00,56.5,49.0,29.83,SW,222,1.0,2.0,76,0.00,,,0.65,Wunderground v.1.15,2013-04-05 22:25:00,
2013-04-05 15:35:00,56.5,49.0,29.84,South,185,1.0,2.0,76,0.00,,,0.65,Wunderground v.1.15,2013-04-05 22:35:00,
2013-04-05 15:45:00,56.2,49.1,29.83,SSE,153,1.0,3.0,77,0.00,,,0.65,Wunderground v.1.15,2013-04-05 22:45:00,
2013-04-05 15:55:00,56.0,48.9,29.83,South,185,1.0,6.0,77,0.00,,,0.65,Wunderground v.1.15,2013-04-05 22:55:00,
2013-04-05 16:05:00,55.7,48.9,29.83,SSE,160,1.0,2.0,78,0.00,,,0.65,Wunderground v.1.15,2013-04-05 23:05:00,
2013-04-05 16:15:00,55.5,48.8,29.83,SE,144,2.0,2.0,78,0.00,,,0.65,Wunderground v.1.15,2013-04-05 23:15:00,
2013-04-05 16:25:00,55.5,48.4,29.83,SSE,167,2.0,3.0,77,0.00,,,0.65,Wunderground v.1.15,2013-04-05 23:25:00,
2013-04-05 16:30:00,55.5,48.8,29.83,SW,223,3.0,4.0,78,0.00,,,0.65,Wunderground v.1.15,2013-04-05 23:30:00,
2013-04-05 16:35:00,55.5,48.8,29.83,South,175,3.0,6.0,78,0.00,,,0.65,Wunderground v.1.15,2013-04-05 23:35:00,
2013-04-05 16:45:00,55.1,48.7,29.83,SSW,197,2.0,6.0,79,0.00,,,0.65,Wunderground v.1.15,2013-04-05 23:45:00,
2013-04-05 16:50:00,54.9,48.8,29.83,SE,124,1.0,1.0,80,0.00,,,0.65,Wunderground v.1.15,2013-04-05 23:50:00,
2013-04-05 16:55:00,54.8,48.7,29.83,SW,222,1.0,2.0,80,0.00,,,0.65,Wunderground v.1.15,2013-04-05 23:55:00,
2013-04-05 17:05:00,54.5,48.8,29.84,South,185,2.0,3.0,81,0.00,,,0.65,Wunderground v.1.15,2013-04-06 00:05:00,
2013-04-05 17:10:00,54.4,49.0,29.83,South,185,2.0,2.0,82,0.00,,,0.65,Wunderground v.1.15,2013-04-06 00:10:00,
2013-04-05 17:15:00,54.2,49.1,29.83,South,180,2.0,6.0,83,0.00,,,0.65,Wunderground v.1.15,2013-04-06 00:15:00,
2013-04-05 17:25:00,53.6,49.2,29.83,South,170,2.0,5.0,85,0.00,,,0.65,Wunderground v.1.15,2013-04-06 00:25:00,
2013-04-05 17:35:00,53.0,49.2,29.83,SW,233,2.0,8.0,87,0.00,,,0.65,Wunderground v.1.15,2013-04-06 00:35:00,
2013-04-05 17:45:00,52.5,49.4,29.83,SSE,149,1.0,8.0,89,0.00,,,0.65,Wunderground v.1.15,2013-04-06 00:45:00,
2013-04-05 18:00:00,52.1,49.6,29.83,South,185,0.0,1.0,91,0.00,,,0.66,Wunderground v.1.15,2013-04-06 01:00:00,
2013-04-05 18:05:00,52.0,49.5,29.83,SSW,193,0.0,1.0,91,0.00,,,0.66,Wunderground v.1.15,2013-04-06 01:05:00,
2013-04-05 18:10:00,51.9,49.4,29.83,ESE,121,1.0,1.0,91,0.00,,,0.66,Wunderground v.1.15,2013-04-06 01:10:00,
2013-04-05 18:15:00,51.9,49.6,29.83,SSE,150,1.0,2.0,92,0.00,,,0.66,Wunderground v.1.15,2013-04-06 01:15:00,
2013-04-05 18:25:00,51.6,49.4,29.82,South,175,1.0,1.0,92,0.00,,,0.66,Wunderground v.1.15,2013-04-06 01:25:00,
2013-04-05 18:35:00,51.5,49.5,29.82,SSE,162,0.0,9.0,93,0.00,,,0.66,Wunderground v.1.15,2013-04-06 01:35:00,
2013-04-05 18:45:00,51.4,49.4,29.82,South,169,1.0,9.0,93,0.00,,,0.67,Wunderground v.1.15,2013-04-06 01:45:00,
2013-04-05 18:55:00,51.2,49.2,29.81,SSE,151,1.0,9.0,93,0.00,,,0.67,Wunderground v.1.15,2013-04-06 01:55:00,
2013-04-05 19:05:00,51.2,49.2,29.81,WNW,292,0.0,3.0,93,0.00,,,0.67,Wunderground v.1.15,2013-04-06 02:05:00,
2013-04-05 19:15:00,51.1,49.4,29.81,SSW,199,1.0,1.0,94,0.00,,,0.67,Wunderground v.1.15,2013-04-06 02:15:00,
2013-04-05 19:25:00,51.0,49.3,29.81,SW,225,1.0,2.0,94,0.58,,,0.73,Wunderground v.1.15,2013-04-06 02:25:00,
2013-04-05 19:40:00,49.7,47.8,29.81,South,185,3.0,5.0,93,0.07,,,0.76,Wunderground v.1.15,2013-04-06 02:40:00,
2013-04-05 19:45:00,49.3,47.4,29.81,SSW,210,3.0,5.0,93,0.07,,,0.76,Wunderground v.1.15,2013-04-06 02:45:00,
2013-04-05 19:55:00,48.9,47.2,29.81,SE,127,2.0,5.0,94,0.04,,,0.76,Wunderground v.1.15,2013-04-06 02:55:00,
2013-04-05 20:05:00,48.6,47.0,29.81,SW,233,1.0,1.0,94,0.00,,,0.77,Wunderground v.1.15,2013-04-06 03:05:00,
2013-04-05 20:15:00,48.4,46.8,29.81,WSW,241,0.0,3.0,94,0.00,,,0.77,Wunderground v.1.15,2013-04-06 03:15:00,
2013-04-05 20:25:00,48.3,46.7,29.81,South,185,0.0,1.0,94,0.00,,,0.77,Wunderground v.1.15,2013-04-06 03:25:00,
2013-04-05 20:30:00,48.3,46.9,29.81,SSW,201,0.0,0.0,95,0.00,,,0.77,Wunderground v.1.15,2013-04-06 03:30:00,
2013-04-05 20:35:00,48.2,46.8,29.81,NNE,19,0.0,9.0,95,0.00,,,0.77,Wunderground v.1.15,2013-04-06 03:35:00,
2013-04-05 20:45:00,48.1,46.7,29.81,South,190,0.0,9.0,95,0.00,,,0.77,Wunderground v.1.15,2013-04-06 03:45:00,
2013-04-05 20:55:00,48.2,46.8,29.81,WSW,239,0.0,9.0,95,0.00,,,0.77,Wunderground v.1.15,2013-04-06 03:55:00,
2013-04-05 21:00:00,48.2,46.8,29.81,SSE,166,0.0,0.0,95,0.00,,,0.77,Wunderground v.1.15,2013-04-06 04:00:00,
2013-04-05 21:10:00,48.2,46.8,29.81,South,180,0.0,0.0,95,0.00,,,0.77,Wunderground v.1.15,2013-04-06 04:10:00,
2013-04-05 21:15:00,48.2,46.8,29.81,SSW,200,0.0,0.0,95,0.00,,,0.77,Wunderground v.1.15,2013-04-06 04:15:00,
2013-04-05 21:20:00,48.2,46.8,29.81,SSE,164,0.0,1.0,95,0.00,,,0.77,Wunderground v.1.15,2013-04-06 04:20:00,
2013-04-05 21:25:00,48.2,46.8,29.81,South,175,0.0,1.0,95,0.00,,,0.77,Wunderground v.1.15,2013-04-06 04:25:00,
2013-04-05 21:35:00,48.5,47.1,29.81,SE,129,1.0,3.0,95,0.00,,,0.77,Wunderground v.1.15,2013-04-06 04:35:00,
2013-04-05 21:45:00,48.7,47.3,29.80,South,180,1.0,3.0,95,0.00,,,0.77,Wunderground v.1.15,2013-04-06 04:45:00,
2013-04-05 21:55:00,48.8,47.4,29.80,South,185,1.0,2.0,95,0.00,,,0.77,Wunderground v.1.15,2013-04-06 04:55:00,
2013-04-05 22:05:00,49.0,47.6,29.80,South,170,1.0,1.0,95,0.00,,,0.77,Wunderground v.1.15,2013-04-06 05:05:00,
2013-04-05 22:15:00,49.0,47.6,29.79,SSE,149,1.0,1.0,95,0.00,,,0.77,Wunderground v.1.15,2013-04-06 05:15:00,
2013-04-05 22:25:00,49.1,47.7,29.78,South,175,0.0,1.0,95,0.00,,,0.78,Wunderground v.1.15,2013-04-06 05:25:00,
2013-04-05 22:30:00,49.1,47.7,29.78,SSE,165,1.0,1.0,95,0.00,,,0.78,Wunderground v.1.15,2013-04-06 05:30:00,
2013-04-05 22:35:00,49.1,47.7,29.78,South,180,1.0,5.0,95,0.00,,,0.78,Wunderground v.1.15,2013-04-06 05:35:00,
2013-04-05 22:45:00,49.1,47.7,29.77,SE,141,1.0,5.0,95,0.00,,,0.78,Wunderground v.1.15,2013-04-06 05:45:00,
2013-04-05 22:55:00,49.1,47.7,29.76,SSE,166,1.0,5.0,95,0.00,,,0.79,Wunderground v.1.15,2013-04-06 05:55:00,
2013-04-05 23:05:00,49.2,47.8,29.76,SE,142,0.0,1.0,95,0.00,,,0.79,Wunderground v.1.15,2013-04-06 06:05:00,
2013-04-05 23:10:00,49.2,47.8,29.75,SE,133,0.0,3.0,95,0.00,,,0.79,Wunderground v.1.15,2013-04-06 06:10:00,
2013-04-05 23:15:00,49.1,47.7,29.75,SSE,156,1.0,3.0,95,0.00,,,0.79,Wunderground v.1.15,2013-04-06 06:15:00,
2013-04-05 23:25:00,49.0,47.3,29.74,SW,236,1.0,1.0,94,0.00,,,0.80,Wunderground v.1.15,2013-04-06 06:25:00,
2013-04-05 23:35:00,48.8,47.2,29.73,SSE,156,1.0,6.0,94,0.00,,,0.80,Wunderground v.1.15,2013-04-06 06:35:00,
2013-04-05 23:45:00,48.8,47.4,29.73,East,80,0.0,6.0,95,0.00,,,0.81,Wunderground v.1.15,2013-04-06 06:45:00,
2013-04-05 23:55:00,48.9,47.5,29.72,ENE,68,0.0,6.0,95,0.27,,,0.84,Wunderground v.1.15,2013-04-06 06:55:00,